createdAt,value
2022-11-03T00:00:57.885Z,99765.91
2022-11-03T00:06:08.349Z,99769.38
2022-11-03T00:11:13.358Z,99767.94
2022-11-03T00:16:16.364Z,99755.06
2022-11-03T00:21:21.334Z,99749.69
2022-11-03T00:26:26.253Z,99753.09
2022-11-03T00:31:30.824Z,99749.38
2022-11-03T00:36:36.909Z,99742.88
2022-11-03T00:41:40.521Z,99737.38
2022-11-03T00:46:43.638Z,99731.81
2022-11-03T00:51:47.990Z,99719.78
2022-11-03T00:56:51.038Z,99714.59
2022-11-03T01:01:54.168Z,99706.44
2022-11-03T01:07:00.376Z,99718.31
2022-11-03T01:12:05.702Z,99726.47
2022-11-03T01:17:10.445Z,99724.84
2022-11-03T01:22:15.819Z,99727.28
2022-11-03T01:27:20.832Z,99718.47
2022-11-03T01:32:23.829Z,99710.19
2022-11-03T01:37:28.175Z,99712.00
2022-11-03T01:42:31.173Z,99708.50
2022-11-03T01:47:37.069Z,99706.94
2022-11-03T01:52:45.982Z,99703.19
2022-11-03T01:57:55.744Z,99709.00
2022-11-03T02:02:59.360Z,99687.78
2022-11-03T02:13:21.024Z,99669.34
2022-11-03T02:18:29.174Z,99669.81
2022-11-03T02:23:42.073Z,99668.31
2022-11-03T02:28:46.673Z,99654.06
2022-11-03T02:33:55.035Z,99644.16
2022-11-03T02:39:02.682Z,99653.94
2022-11-03T02:44:13.625Z,99645.41
2022-11-03T02:49:16.814Z,99633.59
2022-11-03T02:54:24.698Z,99624.38
2022-11-03T02:59:33.225Z,99618.34
2022-11-03T03:04:38.646Z,99602.06
2022-11-03T03:09:45.641Z,99594.53
2022-11-03T03:14:51.998Z,99589.41
2022-11-03T03:20:00.559Z,99583.25
2022-11-03T03:25:12.424Z,99591.13
2022-11-03T03:30:18.590Z,99582.00
2022-11-03T03:35:25.599Z,99567.84
2022-11-03T03:40:33.010Z,99569.97
2022-11-03T03:45:38.171Z,99567.88
2022-11-03T03:50:43.851Z,99543.72
2022-11-03T03:55:51.497Z,99535.41
2022-11-03T04:00:55.978Z,99534.97
2022-11-03T04:05:58.994Z,99519.50
2022-11-03T04:11:19.181Z,99523.72
2022-11-03T04:16:41.000Z,99516.25
2022-11-03T04:22:01.314Z,99504.94
2022-11-03T04:27:30.923Z,99517.00
2022-11-03T04:32:35.741Z,99503.03
2022-11-03T04:37:42.494Z,99495.06
2022-11-03T04:42:47.974Z,99499.63
2022-11-03T04:47:54.137Z,99496.69
2022-11-03T04:52:59.109Z,99487.13
2022-11-03T04:58:08.543Z,99484.16
2022-11-03T05:03:16.190Z,99477.72
2022-11-03T05:08:20.609Z,99476.41
2022-11-03T05:13:26.739Z,99474.78
2022-11-03T05:18:33.607Z,99481.28
2022-11-03T05:23:40.521Z,99482.25
2022-11-03T05:28:45.654Z,99464.72
2022-11-03T05:33:51.658Z,99464.06
2022-11-03T05:38:59.774Z,99455.94
2022-11-03T05:44:06.491Z,99457.91
2022-11-03T05:49:12.278Z,99457.09
2022-11-03T05:54:22.080Z,99449.31
2022-11-03T05:59:29.285Z,99450.09
2022-11-03T06:04:38.054Z,99451.22
2022-11-03T06:09:42.254Z,99451.69
2022-11-03T06:14:45.416Z,99448.13
2022-11-03T06:19:51.711Z,99452.34
2022-11-03T06:24:57.745Z,99441.81
2022-11-03T06:30:03.880Z,99447.00
2022-11-03T06:35:13.206Z,99443.63
2022-11-03T06:40:35.445Z,99442.94
2022-11-03T06:45:38.459Z,99442.75
2022-11-03T06:50:44.945Z,99439.06
2022-11-03T06:55:49.594Z,99424.78
2022-11-03T07:00:52.760Z,99435.13
2022-11-03T07:06:03.243Z,99429.81
2022-11-03T07:11:13.356Z,99415.19
2022-11-03T07:16:21.152Z,99405.22
2022-11-03T07:21:37.455Z,99415.16
2022-11-03T07:26:40.679Z,99396.31
2022-11-03T07:31:43.704Z,99381.59
2022-11-03T07:36:52.722Z,99370.22
2022-11-03T07:41:58.562Z,99375.00
2022-11-03T07:47:11.994Z,99375.53
2022-11-03T07:52:21.014Z,99367.50
2022-11-03T07:57:27.386Z,99364.72
2022-11-03T08:02:34.244Z,99354.59
2022-11-03T08:07:38.553Z,99346.50
2022-11-03T08:12:41.460Z,99340.72
2022-11-03T08:17:44.393Z,99326.00
2022-11-03T08:23:05.056Z,99319.75
2022-11-03T08:28:11.564Z,99318.53
2022-11-03T08:33:14.548Z,99324.19
2022-11-03T08:38:18.900Z,99313.38
2022-11-03T08:43:22.044Z,99300.84
2022-11-03T08:48:28.166Z,99289.13
2022-11-03T08:53:32.427Z,99287.75
2022-11-03T08:58:36.199Z,99288.78
2022-11-03T09:03:39.879Z,99271.22
2022-11-03T09:14:07.325Z,99253.72
2022-11-03T09:19:10.266Z,99247.41
2022-11-03T09:24:14.551Z,99245.50
2022-11-03T09:29:17.543Z,99237.84
2022-11-03T09:34:20.471Z,99230.22
2022-11-03T09:39:24.780Z,99215.84
2022-11-03T09:44:28.363Z,99216.63
2022-11-03T09:49:33.552Z,99200.50
2022-11-03T09:54:37.847Z,99201.91
2022-11-03T09:59:44.025Z,99198.63
2022-11-03T10:04:46.929Z,99191.34
2022-11-03T10:09:53.560Z,99181.88
2022-11-03T10:14:56.689Z,99169.88
2022-11-03T10:19:59.761Z,99156.84
2022-11-03T10:25:35.413Z,99135.50
2022-11-03T10:31:10.123Z,99126.81
2022-11-03T10:36:26.892Z,99118.34
2022-11-03T10:41:33.042Z,99100.81
2022-11-03T10:46:50.174Z,99098.19
2022-11-03T10:51:55.866Z,99088.78
2022-11-03T10:57:00.158Z,99065.31
2022-11-03T11:02:04.045Z,99055.78
2022-11-03T11:07:19.465Z,99054.00
2022-11-03T11:12:25.508Z,99034.44
2022-11-03T11:17:46.704Z,99022.31
2022-11-03T11:22:50.917Z,99006.94
2022-11-03T11:27:59.045Z,99000.19
2022-11-03T11:33:02.730Z,98996.97
2022-11-03T11:38:43.073Z,98990.38
2022-11-03T11:43:47.351Z,98975.19
2022-11-03T11:48:52.182Z,98960.16
2022-11-03T11:54:16.595Z,98952.47
2022-11-03T11:59:25.139Z,98944.56
2022-11-03T12:04:31.594Z,98945.66
2022-11-03T12:09:35.071Z,98944.16
2022-11-03T12:14:40.380Z,98923.59
2022-11-03T12:19:44.891Z,98914.50
2022-11-03T12:24:50.821Z,98900.31
2022-11-03T12:29:56.896Z,98898.31
2022-11-03T12:34:59.970Z,98894.50
2022-11-03T12:40:02.988Z,98885.38
2022-11-03T12:45:08.514Z,98876.84
2022-11-03T12:50:11.557Z,98864.94
2022-11-03T12:55:14.618Z,98867.09
2022-11-03T13:00:19.474Z,98862.56
2022-11-03T13:05:22.433Z,98856.38
2022-11-03T13:10:25.364Z,98853.50
2022-11-03T13:15:29.660Z,98851.44
2022-11-03T13:20:32.778Z,98833.88
2022-11-03T13:25:35.813Z,98815.97
2022-11-03T13:30:41.432Z,98806.31
2022-11-03T13:35:44.441Z,98783.06
2022-11-03T13:40:56.936Z,98766.53
2022-11-03T13:46:03.948Z,98769.63
2022-11-03T13:51:10.605Z,98749.53
2022-11-03T13:56:19.495Z,98744.59
2022-11-03T14:01:26.495Z,98754.91
2022-11-03T14:06:29.484Z,98751.53
2022-11-03T14:11:49.919Z,98751.47
2022-11-03T14:16:54.560Z,98723.22
2022-11-03T14:21:57.584Z,98729.47
2022-11-03T14:27:00.752Z,98715.25
2022-11-03T14:32:05.879Z,98712.69
2022-11-03T14:37:09.299Z,98713.19
2022-11-03T14:42:16.703Z,98697.53
2022-11-03T14:47:21.978Z,98692.28
2022-11-03T14:52:24.932Z,98687.88
2022-11-03T14:57:27.859Z,98679.88
2022-11-03T15:02:32.645Z,98666.94
2022-11-03T15:07:35.756Z,98657.25
2022-11-03T15:12:38.666Z,98628.72
2022-11-03T15:17:43.164Z,98628.13
2022-11-03T15:28:09.508Z,98613.00
2022-11-03T15:38:21.854Z,98612.47
2022-11-03T15:43:24.903Z,98597.97
2022-11-03T15:48:33.545Z,98586.56
2022-11-03T15:53:37.791Z,98576.97
2022-11-03T15:58:40.891Z,98560.78
2022-11-03T16:03:45.216Z,98563.72
2022-11-03T16:08:48.244Z,98554.59
2022-11-03T16:13:51.660Z,98545.03
2022-11-03T16:18:55.998Z,98540.81
2022-11-03T16:23:59.368Z,98529.38
2022-11-03T16:29:05.835Z,98529.31
2022-11-03T16:34:10.324Z,98522.88
2022-11-03T16:39:13.460Z,98522.53
2022-11-03T16:44:16.544Z,98511.84
2022-11-03T16:49:21.078Z,98506.59
2022-11-03T16:54:24.044Z,98494.84
2022-11-03T16:59:27.436Z,98500.66
2022-11-03T17:04:32.008Z,98487.53
2022-11-03T17:09:34.964Z,98464.84
2022-11-03T17:14:37.975Z,98459.72
2022-11-03T17:19:42.354Z,98437.91
2022-11-03T17:24:45.326Z,98431.84
2022-11-03T17:29:51.164Z,98428.19
2022-11-03T17:34:55.816Z,98424.34
2022-11-03T17:39:58.844Z,98421.38
2022-11-03T17:45:02.122Z,98409.75
2022-11-03T17:50:07.346Z,98395.16
2022-11-03T17:55:18.049Z,98389.13
2022-11-03T18:00:22.385Z,98381.59
2022-11-03T18:05:30.265Z,98372.72
2022-11-03T18:10:35.668Z,98362.00
2022-11-03T18:15:41.637Z,98357.66
2022-11-03T18:20:53.099Z,98353.88
2022-11-03T18:25:56.855Z,98340.56
2022-11-03T18:30:59.831Z,98329.94
2022-11-03T18:36:06.631Z,98317.38
2022-11-03T18:41:28.864Z,98305.66
2022-11-03T18:46:31.835Z,98284.47
2022-11-03T18:51:36.498Z,98283.00
2022-11-03T18:56:39.475Z,98276.63
2022-11-03T19:01:42.540Z,98265.00
2022-11-03T19:06:48.685Z,98259.91
2022-11-03T19:11:53.798Z,98261.84
2022-11-03T19:22:27.550Z,98255.25
2022-11-03T19:27:34.582Z,98252.88
2022-11-03T19:32:42.695Z,98243.44
2022-11-03T19:37:48.770Z,98223.06
2022-11-03T19:42:52.682Z,98230.22
2022-11-03T19:48:28.843Z,98215.75
2022-11-03T19:53:27.172Z,98211.09
2022-11-03T19:58:30.775Z,98196.97
2022-11-03T20:03:33.741Z,98194.81
2022-11-03T20:08:38.538Z,98178.06
2022-11-03T20:13:43.811Z,98173.31
2022-11-03T20:18:48.364Z,98168.63
2022-11-03T20:23:52.963Z,98167.66
2022-11-03T20:28:57.336Z,98167.41
2022-11-03T20:34:00.255Z,98158.97
2022-11-03T20:39:05.003Z,98152.59
2022-11-03T20:44:07.909Z,98155.66
2022-11-03T20:49:11.372Z,98142.94
2022-11-03T20:54:18.425Z,98135.13
2022-11-03T20:59:24.576Z,98138.03
2022-11-03T21:04:29.110Z,98127.28
2022-11-03T21:09:33.395Z,98137.38
2022-11-03T21:14:36.500Z,98134.81
2022-11-03T21:19:57.190Z,98136.09
2022-11-03T21:25:01.495Z,98118.91
2022-11-03T21:30:05.318Z,98124.66
2022-11-03T21:35:12.014Z,98123.53
2022-11-03T21:40:16.873Z,98124.78
2022-11-03T21:45:20.368Z,98112.84
2022-11-03T21:50:23.303Z,98112.53
2022-11-03T21:55:28.976Z,98103.06
2022-11-03T22:00:32.135Z,98103.41
2022-11-03T22:05:35.112Z,98092.66
2022-11-03T22:10:40.885Z,98089.66
2022-11-03T22:16:01.525Z,98080.09
2022-11-03T22:21:21.754Z,98075.59
2022-11-03T22:26:43.934Z,98063.22
2022-11-03T22:31:46.935Z,98053.88
2022-11-03T22:36:49.839Z,98053.88
2022-11-03T22:42:11.373Z,98055.13
2022-11-03T22:47:17.444Z,98045.59
2022-11-03T22:52:21.623Z,98042.97
2022-11-03T22:57:25.953Z,98037.75
2022-11-03T23:02:28.946Z,98025.03
2022-11-03T23:07:35.797Z,98006.50
2022-11-03T23:12:42.733Z,98001.47
2022-11-03T23:18:03.273Z,97996.28
2022-11-03T23:23:06.543Z,97987.78
2022-11-03T23:28:11.066Z,97986.03
2022-11-03T23:33:13.947Z,97984.69
2022-11-03T23:38:16.886Z,97974.19
2022-11-03T23:43:21.151Z,97974.44
2022-11-03T23:48:41.428Z,97964.41
2022-11-03T23:53:45.441Z,97950.75
2022-11-03T23:58:50.837Z,97947.53
